Time;durP1;ratioP1;P1;durP2;ratioP2;P2;SDS_P1;SDS_P2;PMS_P1;PMS_P2;Temp;Humidity;BMP_temperature;BMP_pressure;BME280_temperature;BME280_humidity;BME280_pressure;Samples;Min_cycle;Max_cycle;Signal;HPM_P1;HPM_P2
2022/04/15 00:00:44;;;;;;;5.85;5.32;;;9.90;99.90;;;;;;5031395;28;20025;-76
2022/04/15 00:03:11;;;;;;;7.30;4.85;;;10.00;99.90;;;;;;4998172;28;20487;-76
2022/04/15 00:05:40;;;;;;;6.65;6.05;;;10.00;99.90;;;;;;5024431;28;20052;-76
2022/04/15 00:08:08;;;;;;;5.35;4.93;;;10.10;99.90;;;;;;5014664;28;20045;-76
2022/04/15 00:10:35;;;;;;;6.05;5.35;;;10.10;99.90;;;;;;5030838;28;20029;-76
2022/04/15 00:13:03;;;;;;;6.28;5.43;;;10.10;99.90;;;;;;5029073;28;20037;-76
2022/04/15 00:15:30;;;;;;;13.77;5.82;;;10.10;99.90;;;;;;5025806;28;20042;-76
2022/04/15 00:17:56;;;;;;;5.30;4.75;;;10.00;99.90;;;;;;5028483;28;20030;-76
2022/04/15 00:20:22;;;;;;;6.10;5.50;;;10.00;99.90;;;;;;5028708;28;20030;-76
2022/04/15 00:22:50;;;;;;;6.95;6.15;;;9.90;99.90;;;;;;5031769;28;20052;-78
2022/04/15 00:25:16;;;;;;;6.80;6.20;;;9.70;99.90;;;;;;5026667;28;20048;-76
2022/04/15 00:27:42;;;;;;;7.90;6.50;;;9.60;99.90;;;;;;5032354;28;20045;-76
2022/04/15 00:30:10;;;;;;;7.38;6.78;;;9.60;99.90;;;;;;5031483;28;20044;-77
2022/04/15 00:32:36;;;;;;;9.23;6.45;;;9.60;99.90;;;;;;5026368;28;20064;-76
2022/04/15 00:35:04;;;;;;;7.18;5.75;;;9.60;99.90;;;;;;5025382;28;20547;-76
2022/04/15 00:37:31;;;;;;;10.15;7.65;;;9.50;99.90;;;;;;5031489;28;20029;-76
2022/04/15 00:39:58;;;;;;;7.97;7.18;;;9.40;99.90;;;;;;5030510;28;20029;-76
2022/04/15 00:42:24;;;;;;;7.72;7.03;;;9.30;99.90;;;;;;5031584;28;20033;-76
2022/04/15 00:44:58;;;;;;;7.32;6.68;;;9.20;99.90;;;;;;5031670;28;20035;-76
2022/04/15 00:47:39;;;;;;;7.28;6.60;;;9.20;99.90;;;;;;5030897;28;20038;-76
2022/04/15 00:50:05;;;;;;;6.50;5.88;;;9.20;99.90;;;;;;5024979;28;20048;-76
2022/04/15 00:52:39;;;;;;;7.93;7.22;;;9.20;99.90;;;;;;5031885;28;20037;-76
2022/04/15 00:55:06;;;;;;;8.30;7.53;;;9.30;99.90;;;;;;5026110;28;20046;-77
2022/04/15 00:57:36;;;;;;;6.88;6.22;;;9.20;99.90;;;;;;5025454;28;20034;-76
2022/04/15 01:00:05;;;;;;;8.82;6.53;;;9.20;99.90;;;;;;5027645;28;20029;-76
2022/04/15 01:02:33;;;;;;;8.90;8.00;;;9.10;99.90;;;;;;5031298;28;20036;-76
2022/04/15 01:05:03;;;;;;;10.98;6.90;;;9.10;99.90;;;;;;5025100;28;20038;-81
2022/04/15 01:07:40;;;;;;;8.00;7.28;;;9.00;99.90;;;;;;5028802;28;20458;-76
2022/04/15 01:10:09;;;;;;;8.30;7.15;;;9.00;99.90;;;;;;5033817;28;20042;-76
2022/04/15 01:12:40;;;;;;;7.97;7.18;;;9.00;99.90;;;;;;5029534;28;20041;-76
2022/04/15 01:15:09;;;;;;;9.27;8.38;;;9.00;99.90;;;;;;5030494;28;20386;-76
2022/04/15 01:17:35;;;;;;;8.43;7.72;;;9.00;99.90;;;;;;5022162;28;20402;-76
2022/04/15 01:20:05;;;;;;;16.83;8.30;;;8.80;99.90;;;;;;5028552;28;20049;-75
2022/04/15 01:22:33;;;;;;;11.43;8.13;;;8.60;99.90;;;;;;5020317;28;20527;-76
2022/04/15 01:24:59;;;;;;;12.90;8.77;;;8.50;99.90;;;;;;5035194;28;20044;-75
2022/04/15 01:27:36;;;;;;;11.05;9.80;;;8.50;99.90;;;;;;5034266;28;20049;-77
2022/04/15 01:30:04;;;;;;;13.10;9.48;;;8.50;99.90;;;;;;5033943;28;20042;-77
2022/04/15 01:32:31;;;;;;;9.85;8.98;;;8.50;99.90;;;;;;5001234;28;20041;-76
2022/04/15 01:34:57;;;;;;;9.68;8.45;;;8.40;99.90;;;;;;5033792;28;20471;-76
2022/04/15 01:37:24;;;;;;;10.30;8.23;;;8.40;99.90;;;;;;5034783;28;20037;-76
2022/04/15 01:39:50;;;;;;;9.88;9.10;;;8.40;99.90;;;;;;5030625;28;20030;-77
2022/04/15 01:42:17;;;;;;;9.15;8.23;;;8.40;99.90;;;;;;5033861;28;20462;-77
2022/04/15 01:44:44;;;;;;;15.75;9.10;;;8.40;99.90;;;;;;5035628;28;20525;-76
2022/04/15 01:47:11;;;;;;;15.35;8.43;;;8.40;99.90;;;;;;5034909;28;20045;-76
2022/04/15 01:49:37;;;;;;;9.27;8.40;;;8.30;99.90;;;;;;5016249;28;20040;-76
2022/04/15 01:52:07;;;;;;;12.10;10.02;;;8.10;99.90;;;;;;5035897;28;20029;-78
2022/04/15 01:54:33;;;;;;;15.15;8.60;;;8.00;99.90;;;;;;5032499;28;20029;-76
2022/04/15 01:56:59;;;;;;;10.38;9.45;;;8.20;99.90;;;;;;5037959;28;20045;-76
2022/04/15 01:59:25;;;;;;;10.68;9.55;;;8.20;99.90;;;;;;5033866;28;20462;-77
2022/04/15 02:01:54;;;;;;;9.18;8.40;;;8.20;99.90;;;;;;5035406;28;20486;-76
2022/04/15 02:04:30;;;;;;;10.13;9.35;;;8.20;99.90;;;;;;5036001;28;20034;-77
2022/04/15 02:06:57;;;;;;;9.98;9.02;;;8.10;99.90;;;;;;5033183;28;20044;-77
2022/04/15 02:09:23;;;;;;;11.73;10.57;;;8.10;99.90;;;;;;5029575;28;20418;-76
2022/04/15 02:11:49;;;;;;;12.25;11.10;;;8.10;99.90;;;;;;5035102;28;20034;-76
2022/04/15 02:14:18;;;;;;;12.05;10.27;;;8.10;99.90;;;;;;5028434;28;20398;-77
2022/04/15 02:16:46;;;;;;;11.35;10.25;;;8.00;99.90;;;;;;5032426;28;20037;-76
2022/04/15 02:19:12;;;;;;;11.43;10.23;;;8.00;99.90;;;;;;5027900;28;20042;-76
2022/04/15 02:21:39;;;;;;;10.25;9.20;;;8.00;99.90;;;;;;5035649;28;20029;-77
2022/04/15 02:24:06;;;;;;;10.75;9.95;;;7.90;99.90;;;;;;5018062;28;20045;-76
2022/04/15 02:26:32;;;;;;;11.35;10.35;;;7.80;99.90;;;;;;5031311;28;20037;-76
2022/04/15 02:28:59;;;;;;;12.50;11.32;;;7.70;99.90;;;;;;5034786;28;20108;-76
2022/04/15 02:31:25;;;;;;;12.48;11.35;;;7.70;99.90;;;;;;5035718;28;20032;-77
2022/04/15 02:33:52;;;;;;;12.95;11.68;;;7.70;99.90;;;;;;5035165;28;20056;-76
2022/04/15 02:36:18;;;;;;;16.15;12.07;;;7.70;99.90;;;;;;5034909;28;20033;-76
2022/04/15 02:38:44;;;;;;;12.40;11.25;;;7.70;99.90;;;;;;5015760;28;20076;-79
2022/04/15 02:41:11;;;;;;;11.93;10.73;;;7.70;99.90;;;;;;5035004;28;20025;-76
2022/04/15 02:43:39;;;;;;;10.80;9.90;;;7.70;99.90;;;;;;5033278;28;20057;-77
2022/04/15 02:46:07;;;;;;;13.43;12.15;;;7.70;99.90;;;;;;5034096;28;20029;-77
2022/04/15 02:48:34;;;;;;;13.57;11.02;;;7.80;99.90;;;;;;5026345;28;20264;-77
2022/04/15 02:51:01;;;;;;;13.60;11.65;;;7.90;99.90;;;;;;5033473;28;20404;-76
2022/04/15 02:53:27;;;;;;;11.48;10.15;;;7.90;99.90;;;;;;5033689;28;20044;-76
2022/04/15 02:55:53;;;;;;;10.98;9.98;;;7.90;99.90;;;;;;5029132;28;20033;-76
2022/04/15 02:58:20;;;;;;;10.10;9.20;;;7.70;99.90;;;;;;5016785;28;20049;-79
2022/04/15 03:00:47;;;;;;;10.60;9.60;;;7.60;99.90;;;;;;5032878;28;20037;-76
2022/04/15 03:03:13;;;;;;;10.55;9.60;;;7.60;99.90;;;;;;5033833;28;20411;-76
2022/04/15 03:05:40;;;;;;;11.05;10.05;;;7.50;99.90;;;;;;5024585;28;20352;-76
2022/04/15 03:08:07;;;;;;;10.90;9.82;;;7.50;99.90;;;;;;5033754;28;20494;-76
2022/04/15 03:10:33;;;;;;;11.88;10.95;;;7.40;99.90;;;;;;5025431;28;20033;-76
2022/04/15 03:13:00;;;;;;;15.48;13.73;;;7.40;99.90;;;;;;5030640;28;20033;-76
2022/04/15 03:15:27;;;;;;;15.95;14.55;;;7.30;99.90;;;;;;5027969;28;20041;-76
2022/04/15 03:17:53;;;;;;;17.13;15.52;;;7.30;99.90;;;;;;5033952;28;20123;-76
2022/04/15 03:20:19;;;;;;;17.45;15.65;;;7.20;99.90;;;;;;5029196;28;20041;-77
2022/04/15 03:22:45;;;;;;;20.27;16.52;;;7.20;99.90;;;;;;5033702;28;20383;-76
2022/04/15 03:25:17;;;;;;;18.02;16.42;;;7.10;99.90;;;;;;5032356;28;20475;-75
2022/04/15 03:27:44;;;;;;;16.30;14.80;;;7.00;99.90;;;;;;5032926;28;20402;-77
2022/04/15 03:30:11;;;;;;;18.60;15.48;;;7.00;99.90;;;;;;5031437;28;20052;-76
2022/04/15 03:32:50;;;;;;;15.75;14.15;;;7.10;99.90;;;;;;5031046;28;20037;-76
2022/04/15 03:35:20;;;;;;;19.63;16.83;;;7.20;99.90;;;;;;5026140;28;20045;-76
2022/04/15 03:37:50;;;;;;;16.70;15.15;;;7.20;99.90;;;;;;5030226;28;20046;-76
2022/04/15 03:40:17;;;;;;;15.50;14.00;;;7.10;99.90;;;;;;5031361;28;20036;-77
2022/04/15 03:42:49;;;;;;;14.48;13.25;;;7.00;99.90;;;;;;5031645;28;20382;-76
2022/04/15 03:45:18;;;;;;;17.02;15.45;;;7.00;99.90;;;;;;5014906;28;20048;-83
2022/04/15 03:47:54;;;;;;;16.67;15.15;;;6.90;99.90;;;;;;5032516;28;20041;-76
2022/04/15 03:50:20;;;;;;;16.70;15.05;;;7.00;99.90;;;;;;5026562;28;20038;-76
2022/04/15 03:52:47;;;;;;;17.17;15.43;;;7.10;99.90;;;;;;5029370;28;20037;-76
2022/04/15 03:55:16;;;;;;;17.65;15.98;;;7.20;99.90;;;;;;5029465;28;20037;-76
2022/04/15 03:57:42;;;;;;;16.63;14.98;;;7.20;99.90;;;;;;5032686;28;20033;-76
2022/04/15 04:00:12;;;;;;;19.58;17.58;;;7.30;99.90;;;;;;5032177;28;20037;-76
2022/04/15 04:02:38;;;;;;;18.15;16.55;;;7.30;99.90;;;;;;5027060;28;20029;-76
2022/04/15 04:05:05;;;;;;;18.15;15.98;;;7.20;99.90;;;;;;5032532;28;20045;-76
2022/04/15 04:07:31;;;;;;;20.83;17.10;;;7.10;99.90;;;;;;5032386;28;20038;-76
2022/04/15 04:09:58;;;;;;;16.52;14.82;;;7.10;99.90;;;;;;5024822;28;20053;-76
2022/04/15 04:12:24;;;;;;;17.73;16.05;;;7.00;99.90;;;;;;5025569;28;20037;-76
2022/04/15 04:14:50;;;;;;;17.90;16.10;;;6.90;99.90;;;;;;5030283;28;20368;-76
2022/04/15 04:17:16;;;;;;;19.70;15.55;;;6.90;99.90;;;;;;5026224;28;20025;-76
2022/04/15 04:19:42;;;;;;;18.08;16.35;;;6.90;99.90;;;;;;5026939;28;20056;-77
2022/04/15 04:22:08;;;;;;;18.23;16.45;;;6.90;99.90;;;;;;5031445;28;20037;-76
2022/04/15 04:24:35;;;;;;;21.65;16.60;;;6.90;99.90;;;;;;5026852;28;20060;-76
2022/04/15 04:27:01;;;;;;;17.83;16.05;;;6.90;99.90;;;;;;5032141;28;20029;-76
2022/04/15 04:29:27;;;;;;;15.98;14.55;;;6.80;99.90;;;;;;5030305;28;20052;-76
2022/04/15 04:31:53;;;;;;;16.92;15.23;;;6.80;99.90;;;;;;5032088;28;20037;-76
2022/04/15 04:34:19;;;;;;;16.88;15.25;;;6.90;99.90;;;;;;5031695;28;20037;-76
2022/04/15 04:36:46;;;;;;;16.45;14.82;;;6.90;99.90;;;;;;5032161;28;20489;-76
2022/04/15 04:39:12;;;;;;;17.45;15.10;;;6.90;99.90;;;;;;5030508;28;20036;-76
2022/04/15 04:41:39;;;;;;;16.65;15.02;;;7.00;99.90;;;;;;5031100;28;20033;-76
2022/04/15 04:44:06;;;;;;;18.83;17.02;;;6.90;99.90;;;;;;5031649;28;20037;-77
2022/04/15 04:46:34;;;;;;;17.35;15.82;;;6.90;99.90;;;;;;5028993;28;20029;-76
2022/04/15 04:49:01;;;;;;;18.40;16.58;;;6.90;99.90;;;;;;5028209;28;20029;-76
2022/04/15 04:51:27;;;;;;;17.38;15.98;;;7.00;99.90;;;;;;5030341;28;20041;-76
2022/04/15 04:53:53;;;;;;;17.73;15.93;;;6.90;99.90;;;;;;5031373;28;20045;-76
2022/04/15 04:56:19;;;;;;;15.85;14.43;;;6.90;99.90;;;;;;5031578;28;20038;-77
2022/04/15 04:58:46;;;;;;;17.98;15.90;;;7.00;99.90;;;;;;5026596;28;20037;-77
2022/04/15 05:01:12;;;;;;;17.40;15.73;;;7.00;99.90;;;;;;5028123;28;20033;-76
2022/04/15 05:03:38;;;;;;;17.80;15.95;;;7.00;99.90;;;;;;5026376;28;20033;-76
2022/04/15 05:06:04;;;;;;;18.42;16.83;;;7.00;99.90;;;;;;5028504;28;20427;-77
2022/04/15 05:08:30;;;;;;;18.13;16.77;;;7.10;99.90;;;;;;5023588;28;20041;-77
2022/04/15 05:10:56;;;;;;;22.60;19.73;;;7.20;99.90;;;;;;5028798;28;20037;-76
2022/04/15 05:13:22;;;;;;;19.00;17.20;;;7.30;99.90;;;;;;5028990;28;20044;-76
2022/04/15 05:15:49;;;;;;;18.10;16.45;;;7.40;99.90;;;;;;5031962;28;20040;-77
2022/04/15 05:18:15;;;;;;;18.40;16.80;;;7.60;99.90;;;;;;5030160;28;20030;-78
2022/04/15 05:20:42;;;;;;;18.25;16.27;;;8.10;99.90;;;;;;5023231;28;20498;-76
2022/04/15 05:23:08;;;;;;;16.80;15.23;;;8.60;99.90;;;;;;5025544;28;20036;-76
2022/04/15 05:25:34;;;;;;;16.85;15.18;;;8.90;99.90;;;;;;5031498;28;20034;-76
2022/04/15 05:28:02;;;;;;;15.73;14.20;;;9.20;99.90;;;;;;5032088;28;20128;-76
2022/04/15 05:30:28;;;;;;;16.05;14.40;;;9.60;99.90;;;;;;5026375;28;20471;-76
2022/04/15 05:32:54;;;;;;;18.88;16.95;;;9.90;99.90;;;;;;5030123;28;20025;-76
2022/04/15 05:35:21;;;;;;;16.55;15.15;;;10.00;99.90;;;;;;5028403;28;20390;-76
2022/04/15 05:37:47;;;;;;;17.95;15.63;;;10.30;99.90;;;;;;5031459;28;20052;-76
2022/04/15 05:40:14;;;;;;;24.83;15.20;;;10.90;99.90;;;;;;5029606;28;20124;-76
2022/04/15 05:42:40;;;;;;;18.27;15.73;;;11.40;99.90;;;;;;5010845;28;20033;-77
2022/04/15 05:45:07;;;;;;;16.20;13.85;;;12.00;99.90;;;;;;5010190;28;20045;-76
2022/04/15 05:47:33;;;;;;;16.35;14.75;;;12.40;99.90;;;;;;5033339;28;20386;-77
2022/04/15 05:49:59;;;;;;;18.60;15.90;;;12.40;99.90;;;;;;5027940;28;20037;-76
2022/04/15 05:52:25;;;;;;;17.90;16.08;;;12.40;99.90;;;;;;5030983;28;20466;-77
2022/04/15 05:54:51;;;;;;;15.70;14.13;;;12.60;99.90;;;;;;5035096;28;20033;-77
2022/04/15 05:57:19;;;;;;;16.45;14.90;;;12.70;99.90;;;;;;5022858;28;20053;-77
2022/04/15 05:59:45;;;;;;;16.88;15.23;;;12.70;99.90;;;;;;5028459;28;20042;-76
2022/04/15 06:02:11;;;;;;;17.02;15.35;;;13.00;99.90;;;;;;5036265;28;20037;-77
2022/04/15 06:04:38;;;;;;;17.50;15.77;;;13.30;99.90;;;;;;5023655;28;20049;-77
2022/04/15 06:07:04;;;;;;;18.45;15.80;;;13.10;99.90;;;;;;5038999;28;20032;-77
2022/04/15 06:09:30;;;;;;;16.25;14.65;;;13.20;99.90;;;;;;5015320;28;20052;-77
2022/04/15 06:11:56;;;;;;;19.60;15.48;;;13.10;99.90;;;;;;5036699;28;20033;-77
2022/04/15 06:14:23;;;;;;;16.10;14.32;;;13.60;99.90;;;;;;5016940;28;20040;-78
2022/04/15 06:16:49;;;;;;;16.65;14.98;;;14.00;99.90;;;;;;5014829;28;20042;-76
2022/04/15 06:19:16;;;;;;;21.23;16.40;;;14.30;99.90;;;;;;5032743;28;20037;-74
2022/04/15 06:21:43;;;;;;;17.48;15.70;;;14.50;99.90;;;;;;5028725;28;20036;-74
2022/04/15 06:24:09;;;;;;;19.48;15.10;;;14.40;99.90;;;;;;5034223;28;20040;-75
2022/04/15 06:26:36;;;;;;;17.77;14.93;;;14.60;99.90;;;;;;5033852;28;20030;-77
2022/04/15 06:29:03;;;;;;;15.32;13.93;;;15.00;99.60;;;;;;5033345;28;20123;-74
2022/04/15 06:31:29;;;;;;;17.67;15.73;;;14.80;99.70;;;;;;5033588;28;20032;-74
2022/04/15 06:33:56;;;;;;;16.90;15.10;;;15.00;99.40;;;;;;5027627;28;20038;-74
2022/04/15 06:36:22;;;;;;;16.40;14.43;;;15.10;98.90;;;;;;5033600;28;20056;-74
2022/04/15 06:38:49;;;;;;;16.40;14.63;;;15.10;98.90;;;;;;5032336;28;20026;-78
2022/04/15 06:41:15;;;;;;;23.00;14.70;;;15.60;97.90;;;;;;5038902;28;20033;-74
2022/04/15 06:43:41;;;;;;;16.92;15.05;;;15.60;97.20;;;;;;5029047;28;20037;-74
2022/04/15 06:46:07;;;;;;;15.38;13.85;;;15.70;97.30;;;;;;5016226;28;20499;-75
2022/04/15 06:48:33;;;;;;;16.10;14.25;;;15.30;98.00;;;;;;5032534;28;20371;-75
2022/04/15 06:51:01;;;;;;;15.40;13.63;;;15.50;97.60;;;;;;5032538;28;20036;-74
2022/04/15 06:53:27;;;;;;;15.85;14.25;;;15.80;97.10;;;;;;5025690;28;20060;-74
2022/04/15 06:55:53;;;;;;;16.65;13.07;;;16.10;96.60;;;;;;5033883;28;20045;-74
2022/04/15 06:58:20;;;;;;;17.30;13.30;;;16.20;95.90;;;;;;5030410;28;20041;-76
2022/04/15 07:00:46;;;;;;;13.65;12.50;;;16.50;95.40;;;;;;5032000;28;20057;-74
2022/04/15 07:03:13;;;;;;;15.55;14.02;;;17.00;94.00;;;;;;5033966;28;20513;-74
2022/04/15 07:05:40;;;;;;;17.23;15.02;;;17.20;93.40;;;;;;5032153;28;20061;-74
2022/04/15 07:08:10;;;;;;;16.60;14.43;;;16.60;93.10;;;;;;5032270;28;20040;-76
2022/04/15 07:10:37;;;;;;;17.52;15.82;;;16.60;93.40;;;;;;5031530;28;20200;-75
2022/04/15 07:13:04;;;;;;;19.98;15.13;;;16.50;93.30;;;;;;5033302;28;20041;-74
2022/04/15 07:15:30;;;;;;;16.95;15.25;;;15.80;94.40;;;;;;5028351;28;20030;-74
2022/04/15 07:17:56;;;;;;;18.73;16.27;;;15.80;94.50;;;;;;5032230;28;20029;-74
2022/04/15 07:20:23;;;;;;;17.05;15.32;;;15.80;94.60;;;;;;5030252;28;20082;-74
2022/04/15 07:23:00;;;;;;;16.98;14.70;;;16.00;93.80;;;;;;5033379;28;20048;-74
2022/04/15 07:25:27;;;;;;;17.27;14.63;;;16.60;93.90;;;;;;5032965;28;20034;-74
2022/04/15 07:27:55;;;;;;;15.52;14.02;;;16.90;92.40;;;;;;5011368;28;20046;-78
2022/04/15 07:30:22;;;;;;;15.52;14.00;;;16.80;92.20;;;;;;5026195;28;20030;-75
2022/04/15 07:32:49;;;;;;;15.98;14.32;;;16.60;92.90;;;;;;5032986;28;20391;-74
2022/04/15 07:35:15;;;;;;;18.23;14.25;;;16.80;92.40;;;;;;5014074;28;20045;-77
2022/04/15 07:37:41;;;;;;;15.30;13.90;;;16.70;92.40;;;;;;5029186;28;20455;-77
2022/04/15 07:40:08;;;;;;;16.10;14.57;;;16.70;92.40;;;;;;5028488;28;20036;-77
2022/04/15 07:42:34;;;;;;;17.23;14.07;;;17.00;92.10;;;;;;5032509;28;20041;-79
2022/04/15 07:45:00;;;;;;;15.07;13.50;;;17.10;91.30;;;;;;5028922;28;20394;-78
2022/04/15 07:47:26;;;;;;;13.88;12.45;;;16.90;91.70;;;;;;5029786;28;20052;-78
2022/04/15 07:49:52;;;;;;;13.95;12.55;;;16.90;91.50;;;;;;5026882;28;20033;-80
2022/04/15 07:52:19;;;;;;;17.67;13.70;;;17.10;91.20;;;;;;5029802;28;20029;-79
2022/04/15 07:54:46;;;;;;;14.95;12.93;;;16.60;91.70;;;;;;5032846;28;20041;-76
2022/04/15 07:57:12;;;;;;;12.70;11.38;;;17.10;91.20;;;;;;5027206;28;20034;-77
2022/04/15 07:59:38;;;;;;;14.40;11.55;;;17.20;90.30;;;;;;5031613;28;20451;-75
2022/04/15 08:02:06;;;;;;;14.90;11.82;;;16.80;91.20;;;;;;5036654;28;20037;-76
2022/04/15 08:04:34;;;;;;;12.77;11.52;;;17.10;90.60;;;;;;5032040;28;20053;-77
2022/04/15 08:07:01;;;;;;;11.73;10.43;;;17.00;90.80;;;;;;5030216;28;20033;-76
2022/04/15 08:09:27;;;;;;;11.90;10.73;;;17.40;90.10;;;;;;5030342;28;20034;-79
2022/04/15 08:11:54;;;;;;;13.75;10.63;;;17.80;87.90;;;;;;5026891;28;20048;-78
2022/04/15 08:14:21;;;;;;;11.30;10.30;;;17.20;88.10;;;;;;5028536;28;20042;-78
2022/04/15 08:16:47;;;;;;;12.18;10.98;;;17.10;89.50;;;;;;5014347;28;20037;-76
2022/04/15 08:19:13;;;;;;;12.23;10.43;;;17.40;89.70;;;;;;5028015;28;20033;-77
2022/04/15 08:21:39;;;;;;;13.48;9.77;;;17.60;88.10;;;;;;5030255;28;20037;-75
2022/04/15 08:24:06;;;;;;;11.18;10.00;;;17.30;87.90;;;;;;5025758;28;20044;-76
2022/04/15 08:26:32;;;;;;;11.80;8.75;;;17.30;89.10;;;;;;5031889;28;20033;-75
2022/04/15 08:28:58;;;;;;;10.77;9.68;;;17.60;87.50;;;;;;5031153;28;20046;-76
2022/04/15 08:31:24;;;;;;;10.88;7.90;;;18.20;86.50;;;;;;5032137;28;20037;-77
2022/04/15 08:33:51;;;;;;;8.35;7.57;;;18.30;84.40;;;;;;5031513;28;20030;-76
2022/04/15 08:36:17;;;;;;;8.43;7.63;;;17.80;82.80;;;;;;5028200;28;20450;-75
2022/04/15 08:38:43;;;;;;;13.43;7.60;;;17.60;84.50;;;;;;5027436;28;20046;-76
2022/04/15 08:41:12;;;;;;;9.70;7.75;;;17.80;83.10;;;;;;5026449;28;20034;-76
2022/04/15 08:43:39;;;;;;;9.00;7.13;;;18.00;83.10;;;;;;5026068;28;20042;-75
2022/04/15 08:46:06;;;;;;;10.27;7.88;;;18.00;82.70;;;;;;5032049;28;20041;-75
2022/04/15 08:48:33;;;;;;;11.88;9.15;;;18.00;82.10;;;;;;5030114;28;20033;-76
2022/04/15 08:51:00;;;;;;;11.18;9.57;;;18.20;82.50;;;;;;5032304;28;20033;-75
2022/04/15 08:53:28;;;;;;;9.48;8.60;;;18.20;81.70;;;;;;5023746;28;20037;-75
2022/04/15 08:55:55;;;;;;;8.57;7.72;;;18.20;81.70;;;;;;5032311;28;20029;-75
2022/04/15 08:58:22;;;;;;;8.55;7.65;;;18.50;81.00;;;;;;5022628;28;20041;-75
2022/04/15 09:00:48;;;;;;;8.25;7.45;;;18.40;80.10;;;;;;5026775;28;20053;-75
2022/04/15 09:03:14;;;;;;;8.77;7.75;;;18.60;80.00;;;;;;5032265;28;20026;-75
2022/04/15 09:05:41;;;;;;;7.82;7.10;;;18.90;77.40;;;;;;5025474;28;20041;-75
2022/04/15 09:08:10;;;;;;;8.77;6.72;;;18.80;76.30;;;;;;5024872;28;20052;-75
2022/04/15 09:10:39;;;;;;;10.68;8.02;;;19.10;75.20;;;;;;5030599;28;20045;-77
2022/04/15 09:13:05;;;;;;;8.73;7.80;;;18.60;74.00;;;;;;5014038;28;20048;-75
2022/04/15 09:15:32;;;;;;;7.00;6.38;;;18.20;77.00;;;;;;5025256;28;20379;-76
2022/04/15 09:18:00;;;;;;;11.23;7.10;;;18.50;75.20;;;;;;5026648;28;20395;-76
2022/04/15 09:20:33;;;;;;;13.77;7.05;;;18.60;73.30;;;;;;5033388;28;20034;-74
2022/04/15 09:23:08;;;;;;;10.25;6.90;;;18.80;72.60;;;;;;5029324;28;20390;-75
2022/04/15 09:25:35;;;;;;;11.82;7.90;;;19.20;72.80;;;;;;5031422;28;20046;-74
2022/04/15 09:28:02;;;;;;;8.48;7.40;;;18.80;72.90;;;;;;5028303;28;20049;-78
2022/04/15 09:30:36;;;;;;;9.82;8.02;;;18.50;75.00;;;;;;5012640;28;20045;-75
2022/04/15 09:33:03;;;;;;;11.57;8.55;;;18.80;73.60;;;;;;5035132;28;20053;-75
2022/04/15 09:35:30;;;;;;;7.50;6.57;;;19.20;70.90;;;;;;5035295;28;20044;-76
2022/04/15 09:38:05;;;;;;;8.40;7.53;;;19.20;71.30;;;;;;5036592;28;20481;-78
2022/04/15 09:40:35;;;;;;;8.05;7.18;;;19.10;70.90;;;;;;5026136;28;20033;-76
2022/04/15 09:43:04;;;;;;;9.32;7.53;;;18.80;72.00;;;;;;5025015;28;20030;-78
2022/04/15 09:45:34;;;;;;;13.20;7.68;;;19.00;70.10;;;;;;5017358;28;20033;-75
2022/04/15 09:48:01;;;;;;;8.63;7.23;;;18.90;70.70;;;;;;5035542;28;20030;-77
2022/04/15 09:50:37;;;;;;;10.38;7.28;;;20.10;69.20;;;;;;5034387;28;20307;-75
2022/04/15 09:53:32;;;;;;;12.05;7.35;;;20.40;67.00;;;;;;5033148;28;20025;-76
2022/04/15 09:56:00;;;;;;;7.68;6.88;;;19.80;65.80;;;;;;5029876;28;20045;-75
2022/04/15 09:58:31;;;;;;;6.60;5.90;;;19.30;66.90;;;;;;5026994;28;20033;-75
2022/04/15 10:01:02;;;;;;;8.07;5.80;;;19.00;68.20;;;;;;5029751;28;20022;-74
2022/04/15 10:03:28;;;;;;;7.05;5.90;;;18.90;67.60;;;;;;5027291;28;20034;-76
2022/04/15 10:05:57;;;;;;;8.82;5.75;;;18.70;68.70;;;;;;5015017;28;20041;-74
2022/04/15 10:08:25;;;;;;;4.95;3.97;;;19.10;68.70;;;;;;5028366;28;20501;-75
2022/04/15 10:10:53;;;;;;;5.95;4.65;;;18.90;65.50;;;;;;5012272;28;20060;-74
2022/04/15 10:13:27;;;;;;;8.65;3.70;;;19.00;65.70;;;;;;5016992;28;20053;-74
2022/04/15 10:15:57;;;;;;;3.22;2.92;;;18.30;64.20;;;;;;5034283;28;20033;-75
2022/04/15 10:18:25;;;;;;;3.92;1.88;;;18.40;63.30;;;;;;5034490;28;20034;-74
2022/04/15 10:20:51;;;;;;;4.00;2.97;;;18.10;62.70;;;;;;5036006;28;20033;-76
2022/04/15 10:23:20;;;;;;;3.58;3.28;;;18.00;63.10;;;;;;5044104;28;20041;-78
2022/04/15 10:25:48;;;;;;;3.78;2.78;;;17.90;64.80;;;;;;5047026;28;20045;-75
2022/04/15 10:28:18;;;;;;;2.60;2.28;;;18.20;64.30;;;;;;5036588;28;20054;-75
2022/04/15 10:31:07;;;;;;;2.92;2.25;;;18.80;64.90;;;;;;5033980;28;20045;-74
2022/04/15 10:33:34;;;;;;;4.20;1.85;;;18.90;62.30;;;;;;5034394;28;20088;-74
2022/04/15 10:36:10;;;;;;;4.18;2.20;;;19.00;61.00;;;;;;5031709;28;20033;-76
2022/04/15 10:38:36;;;;;;;2.50;1.58;;;19.00;59.90;;;;;;5029156;28;20030;-74
2022/04/15 10:41:15;;;;;;;3.60;1.55;;;18.80;60.30;;;;;;5035618;28;20037;-74
2022/04/15 10:43:57;;;;;;;3.10;1.20;;;19.00;62.00;;;;;;5028499;28;20038;-74
2022/04/15 10:46:30;;;;;;;2.13;1.55;;;18.80;60.40;;;;;;5031352;28;20590;-77
2022/04/15 10:49:00;;;;;;;1.40;1.10;;;18.70;60.20;;;;;;5030380;28;20044;-75
2022/04/15 10:51:31;;;;;;;2.30;1.45;;;18.60;59.70;;;;;;5032013;28;20379;-77
2022/04/15 10:54:28;;;;;;;1.10;1.00;;;18.70;59.20;;;;;;5033487;28;20409;-76
2022/04/15 10:57:14;;;;;;;3.25;0.82;;;18.80;59.00;;;;;;5029521;28;20367;-77
2022/04/15 11:02:51;;;;;;;1.90;0.55;;;18.80;59.60;;;;;;5032482;28;20036;-75
2022/04/15 11:05:51;;;;;;;1.92;0.85;;;19.10;58.00;;;;;;5033565;28;20049;-75
2022/04/15 11:08:22;;;;;;;1.35;0.90;;;18.70;56.90;;;;;;5031906;28;20037;-77
2022/04/15 11:10:52;;;;;;;1.75;0.93;;;18.60;58.40;;;;;;5032109;28;20041;-75
2022/04/15 11:13:32;;;;;;;2.33;1.27;;;18.70;58.10;;;;;;5027115;28;20041;-75
2022/04/15 11:16:06;;;;;;;5.15;1.45;;;18.80;58.30;;;;;;5033791;28;20108;-76
2022/04/15 11:18:55;;;;;;;3.53;1.55;;;18.60;57.90;;;;;;5029564;28;20033;-76
2022/04/15 11:21:37;;;;;;;1.48;1.30;;;18.60;57.70;;;;;;5013352;28;20040;-76
2022/04/15 11:24:04;;;;;;;2.10;1.50;;;18.80;58.90;;;;;;5028735;28;20021;-76
2022/04/15 11:26:32;;;;;;;2.05;1.25;;;19.00;57.60;;;;;;5032979;28;20041;-77
2022/04/15 11:29:00;;;;;;;1.80;0.88;;;18.90;57.30;;;;;;5026202;28;20065;-77
2022/04/15 11:31:33;;;;;;;1.52;0.80;;;18.70;56.90;;;;;;5029743;28;20052;-76
2022/04/15 11:34:09;;;;;;;1.88;0.80;;;18.60;57.00;;;;;;5032743;28;20044;-77
2022/04/15 11:36:40;;;;;;;1.02;0.82;;;18.70;57.10;;;;;;5029029;28;20386;-76
2022/04/15 11:39:08;;;;;;;2.40;1.40;;;19.10;57.10;;;;;;5030959;28;20037;-79
2022/04/15 11:41:34;;;;;;;1.55;0.70;;;19.10;56.00;;;;;;5033055;28;20041;-83
2022/04/15 11:44:03;;;;;;;0.80;0.45;;;19.20;55.90;;;;;;5032761;28;20030;-82
2022/04/15 11:46:35;;;;;;;1.40;0.95;;;19.10;53.90;;;;;;5032699;28;20053;-83
2022/04/15 11:49:16;;;;;;;4.68;1.27;;;19.00;54.50;;;;;;5031352;28;20032;-82
2022/04/15 11:51:44;;;;;;;1.90;0.85;;;19.00;56.10;;;;;;5032168;28;20086;-81
2022/04/15 11:54:10;;;;;;;1.95;0.65;;;19.10;56.00;;;;;;5032716;28;20387;-84
2022/04/15 11:56:38;;;;;;;4.78;0.50;;;19.30;54.40;;;;;;5030464;28;20033;-84
2022/04/15 11:59:05;;;;;;;1.15;0.68;;;19.20;53.80;;;;;;5012549;28;20382;-82
2022/04/15 12:01:32;;;;;;;1.00;0.85;;;19.20;54.30;;;;;;5028448;28;20379;-81
2022/04/15 12:04:01;;;;;;;0.93;0.82;;;19.10;53.90;;;;;;5033460;28;20378;-84
2022/04/15 12:06:29;;;;;;;1.13;0.82;;;19.10;55.10;;;;;;5028903;28;20033;-82
2022/04/15 12:08:59;;;;;;;3.53;0.98;;;19.20;55.50;;;;;;5031344;28;20475;-82
2022/04/15 12:11:26;;;;;;;1.45;1.02;;;19.50;56.60;;;;;;5032625;28;20391;-81
2022/04/15 12:13:55;;;;;;;2.67;1.48;;;19.70;56.00;;;;;;5034151;28;20029;-82
2022/04/15 12:16:22;;;;;;;1.50;0.77;;;19.40;56.10;;;;;;5033068;28;20033;-83
2022/04/15 12:18:48;;;;;;;2.15;1.35;;;19.60;56.40;;;;;;5026852;28;20030;-83
2022/04/15 12:21:15;;;;;;;2.08;1.27;;;20.00;55.60;;;;;;5029548;28;20033;-83
2022/04/15 12:24:03;;;;;;;0.40;0.38;;;19.60;55.30;;;;;;5013820;28;20041;-83
2022/04/15 12:26:41;;;;;;;0.90;0.50;;;19.30;54.20;;;;;;5025119;28;20041;-82
2022/04/15 12:31:52;;;;;;;3.00;0.75;;;19.70;53.10;;;;;;5027872;28;20033;-81
2022/04/15 12:34:30;;;;;;;0.55;0.50;;;19.50;53.40;;;;;;5032229;28;20029;-79
2022/04/15 12:36:56;;;;;;;0.73;0.43;;;19.40;54.30;;;;;;5031270;28;20033;-79
2022/04/15 12:39:22;;;;;;;2.03;0.80;;;19.60;54.30;;;;;;5026467;28;20029;-79
2022/04/15 12:41:49;;;;;;;0.52;0.40;;;19.60;54.30;;;;;;5031903;28;20041;-80
2022/04/15 12:44:18;;;;;;;0.65;0.40;;;19.80;52.80;;;;;;5029963;28;20045;-78
2022/04/15 12:46:54;;;;;;;2.35;0.50;;;19.50;52.80;;;;;;5028754;28;20258;-81
2022/04/15 12:49:32;;;;;;;0.50;0.40;;;19.50;53.70;;;;;;5026261;28;20372;-81
2022/04/15 12:52:15;;;;;;;4.22;0.50;;;19.40;54.30;;;;;;5013893;28;20037;-81